Airfield :
LOGIN :

Register | Disclaimer

   EN    FR    IT 

 










Legend :    VFR   Marginal VFR   IFR   Intensive IFR   Very Intensive IFR
Visi :
Ceiling :
>= 8 km
>= 3000ft
5 to 8 km
1000 to 3000 ft
1500m to 5 km
500 to 1000 ft
800 to 1500m
200 to 500 ft
< 800m
< 200 ft
Symbols :   Thunderstorms  Fog  Heavy snow  Heavy precipitations  Wind > 20 kt
SIGMETs :     Misc.  Thunderstorms  Icing  Turbulence  Mountain Waves  Volcanic Ashes






- Airport Elevation : 309 ft
- IATA code : FNI


LFTW - Nîmes Garons

CURRENT METAR :
  • 202000Z AUTO 13010KT 100V160 9999 BKN024 BKN031 OVC038 16/12 Q1019

EXPIRED METARs :
  • 201930Z AUTO 14013KT 110V170 9999 BKN025 BKN033 OVC041 16/12 Q1018 NOSIG
  • 201900Z AUTO 14013KT 110V170 9999 BKN024 OVC030 17/12 Q1019 NOSIG
  • 201830Z AUTO 14015KT 9999 BKN023 OVC031 17/12 Q1019 NOSIG
  • 201800Z AUTO 14013KT 9999 BKN023 BKN031 OVC040 17/12 Q1019 TEMPO 14015G30KT
  • 201730Z AUTO 14016KT 9999 FEW027 BKN034 OVC040 17/12 Q1019 TEMPO 14015G30KT

TAF TAF LFTW
Valid from the 20 at 15:00 until the 21 at 15:00 UTC


201400Z 2015/2115 14015G30KT 9999 BKN025 BKN035 OVC042
BECMG 2019/2021 11010KT
TEMPO 2021/2115 NSC
BECMG 2106/2109 13015G30KT
BECMG 2109/2111 13030G40KT



MET'MAP, your aeronautical weather chart ! - Copyright ORBIFLY December 2007 - Disclaimer

ORBIFLY MET'MAP TEAM :

Programming & Development : Alexandra Zaïnal
Concept & original design : Baudouin d'Aumeries
Assistance for programming : Marc-Olivier Méhu
Technical & hardware support : Manuel Goepfert

Contact : metmap@orbifly.com




SOURCES & CREDITS :

   NOAA